createdAt,value
2023-01-17T00:00:21.197Z,98057.89
2023-01-17T00:01:21.057Z,98055.34
2023-01-17T00:02:21.676Z,98056.47
2023-01-17T00:03:21.048Z,98055.87
2023-01-17T00:04:21.096Z,98057.94
2023-01-17T00:05:21.070Z,98055.38
2023-01-17T00:06:21.890Z,98057.15
2023-01-17T00:07:21.980Z,98058.27
2023-01-17T00:08:21.157Z,98052.63
2023-01-17T00:09:21.290Z,98061.51
2023-01-17T00:10:22.935Z,98058.97
2023-01-17T00:11:21.159Z,98064.95
2023-01-17T00:12:21.652Z,98063.64
2023-01-17T00:13:21.234Z,98063.65
2023-01-17T00:14:21.276Z,98065.23
2023-01-17T00:15:21.850Z,98065.11
2023-01-17T00:16:21.387Z,98066.45
2023-01-17T00:17:22.472Z,98065.27
2023-01-17T00:18:21.408Z,98065.04
2023-01-17T00:19:21.536Z,98064.2
2023-01-17T00:20:22.694Z,98062.59
2023-01-17T00:21:21.307Z,98067.31
2023-01-17T00:22:25.923Z,98067.5
2023-01-17T00:23:23.880Z,98069.66
2023-01-17T00:24:22.563Z,98067.67
2023-01-17T00:25:32.463Z,98068.72
2023-01-17T00:26:24.136Z,98065.35
2023-01-17T00:27:24.162Z,98067.15
2023-01-17T00:28:24.980Z,98065.23
2023-01-17T00:29:24.286Z,98064.8
2023-01-17T00:30:24.311Z,98065.38
2023-01-17T00:31:24.316Z,98067.4
2023-01-17T00:32:24.197Z,98064.78
2023-01-17T00:33:24.623Z,98064.12
2023-01-17T00:34:24.258Z,98066.97
2023-01-17T00:35:25.675Z,98063.08
2023-01-17T00:36:24.244Z,98062.02
2023-01-17T00:37:24.264Z,98064.86
2023-01-17T00:38:25.748Z,98064.38
2023-01-17T00:39:24.301Z,98062.12
2023-01-17T00:40:24.381Z,98062.52
2023-01-17T00:41:24.388Z,98061.97
2023-01-17T00:42:24.376Z,98064.06
2023-01-17T00:43:24.413Z,98058.44
2023-01-17T00:44:24.534Z,98058.34
2023-01-17T00:45:24.373Z,98056.41
2023-01-17T00:46:24.439Z,98056.26
2023-01-17T00:47:24.435Z,98057.31
2023-01-17T00:48:24.498Z,98054.98
2023-01-17T00:49:24.487Z,98054.02
2023-01-17T00:50:24.487Z,98059.12
2023-01-17T00:51:24.969Z,98058.11
2023-01-17T00:52:24.499Z,98053.11
2023-01-17T00:53:24.477Z,98055.95
2023-01-17T00:54:25.466Z,98058.48
2023-01-17T00:55:24.530Z,98056.66
2023-01-17T00:56:24.564Z,98054.7
2023-01-17T00:57:24.539Z,98056.1
2023-01-17T00:58:24.673Z,98057.62
2023-01-17T00:59:24.598Z,98056.05
2023-01-17T01:00:24.676Z,98050.7
2023-01-17T01:01:24.754Z,98055.51
2023-01-17T01:02:27.662Z,98052.07
2023-01-17T01:03:25.125Z,98048.41
2023-01-17T01:04:25.152Z,98046.94
2023-01-17T01:05:25.174Z,98049.66
2023-01-17T01:06:25.156Z,98049.31
2023-01-17T01:07:25.167Z,98045.86
2023-01-17T01:08:29.177Z,98047.91
2023-01-17T01:09:25.824Z,98047.8
2023-01-17T01:10:25.937Z,98045.34
2023-01-17T01:11:25.793Z,98044.1
2023-01-17T01:12:25.879Z,98043.32
2023-01-17T01:13:26.352Z,98040.33
2023-01-17T01:14:25.851Z,98042.6
2023-01-17T01:15:25.910Z,98042.28
2023-01-17T01:16:25.964Z,98043.53
2023-01-17T01:17:25.917Z,98045.08
2023-01-17T01:18:26.037Z,98042.06
2023-01-17T01:19:26.200Z,98044.95
2023-01-17T01:20:26.018Z,98040.12
2023-01-17T01:21:25.966Z,98038.75
2023-01-17T01:22:26.047Z,98041.5
2023-01-17T01:23:26.109Z,98047.41
2023-01-17T01:24:26.056Z,98050.73
2023-01-17T01:25:26.085Z,98046.95
2023-01-17T01:26:26.045Z,98052.72
2023-01-17T01:27:26.098Z,98047.75
2023-01-17T01:28:26.089Z,98049.06
2023-01-17T01:29:26.196Z,98043.11
2023-01-17T01:30:26.232Z,98040.95
2023-01-17T01:31:26.204Z,98043
2023-01-17T01:32:26.154Z,98040.31
2023-01-17T01:33:26.140Z,98042.92
2023-01-17T01:34:26.188Z,98040.75
2023-01-17T01:35:26.282Z,98039.59
2023-01-17T01:36:26.302Z,98042.17
2023-01-17T01:37:26.249Z,98035.48
2023-01-17T01:38:31.611Z,98036.95
2023-01-17T01:39:28.317Z,98034.23
2023-01-17T01:40:28.573Z,98032.59
2023-01-17T01:41:28.343Z,98026.31
2023-01-17T01:42:28.344Z,98029.59
2023-01-17T01:45:36.627Z,98031.02
2023-01-17T01:46:39.150Z,98029.86
2023-01-17T01:47:38.386Z,98030.75
2023-01-17T01:48:39.370Z,98024.88
2023-01-17T01:49:36.625Z,98025.81
2023-01-17T01:50:36.837Z,98025.84
2023-01-17T01:51:39.641Z,98027.83
2023-01-17T01:52:39.102Z,98031.59
2023-01-17T01:53:38.459Z,98029.02
2023-01-17T01:54:42.678Z,98028.48
2023-01-17T01:55:40.926Z,98026.99
2023-01-17T01:56:39.315Z,98035.4
2023-01-17T01:57:40.713Z,98029.97
2023-01-17T01:58:40.399Z,98029.28
2023-01-17T01:59:41.479Z,98018.11
2023-01-17T02:00:40.357Z,98023.41
2023-01-17T02:01:39.327Z,98020.55
2023-01-17T02:02:39.265Z,98027.41
2023-01-17T02:03:40.648Z,98023.52
2023-01-17T02:04:39.518Z,98026.5
2023-01-17T02:05:39.803Z,98030.77
2023-01-17T02:06:44.557Z,98032.06
2023-01-17T02:07:47.896Z,98034.13
2023-01-17T02:08:44.324Z,98032.89
2023-01-17T02:09:44.511Z,98035.06
2023-01-17T02:10:44.665Z,98032.32
2023-01-17T02:11:45.710Z,98033.11
2023-01-17T02:12:44.748Z,98026.27
2023-01-17T02:13:44.214Z,98028.63
2023-01-17T02:14:44.247Z,98020.84
2023-01-17T02:22:18.621Z,98021.03
2023-01-17T02:24:27.435Z,98019.64
2023-01-17T02:30:32.731Z,98004.12
2023-01-17T02:31:41.922Z,98016.62
2023-01-17T02:32:45.693Z,98010.3
2023-01-17T02:33:47.795Z,98010.78
2023-01-17T02:35:51.639Z,98012.39
2023-01-17T02:36:51.581Z,98002.77
2023-01-17T02:40:04.809Z,98008.53
2023-01-17T02:41:06.556Z,98008.86
2023-01-17T02:42:01.942Z,98007.23
2023-01-17T02:43:01.233Z,98015.33
2023-01-17T02:43:58.602Z,98012.88
2023-01-17T02:44:58.631Z,98005.73
2023-01-17T02:45:58.700Z,98011.61
2023-01-17T02:46:58.629Z,98005.97
2023-01-17T02:47:58.746Z,98003.81
2023-01-17T02:48:59.279Z,98004.73
2023-01-17T02:50:04.301Z,98001.23
2023-01-17T02:51:06.443Z,98002.19
2023-01-17T03:02:35.664Z,97975.84
2023-01-17T03:03:45.321Z,97978.59
2023-01-17T03:07:45.255Z,97975.62
2023-01-17T03:08:47.036Z,97970.44
2023-01-17T03:09:46.410Z,97965.55
2023-01-17T03:10:45.491Z,97968.48
2023-01-17T03:11:45.275Z,97960.5
2023-01-17T03:12:45.705Z,97963.24
2023-01-17T03:13:45.243Z,97953.89
2023-01-17T03:14:45.258Z,97959.86
2023-01-17T03:15:45.363Z,97967.52
2023-01-17T03:16:45.405Z,97966.47
2023-01-17T03:17:47.592Z,97962.91
2023-01-17T03:18:45.370Z,97960.62
2023-01-17T03:19:45.346Z,97957.52
2023-01-17T03:20:45.348Z,97954.17
2023-01-17T03:21:45.366Z,97954.75
2023-01-17T03:22:45.414Z,97956.18
2023-01-17T03:23:45.449Z,97954.25
2023-01-17T03:24:45.403Z,97955.92
2023-01-17T03:25:45.459Z,97958.34
2023-01-17T03:26:45.442Z,97958.64
2023-01-17T03:27:45.591Z,97957.17
2023-01-17T03:28:45.595Z,97955.51
2023-01-17T03:29:45.617Z,97955.48
2023-01-17T03:30:45.583Z,97956.48
2023-01-17T03:31:45.567Z,97948.62
2023-01-17T03:32:45.554Z,97955.6
2023-01-17T03:33:45.923Z,97953.09
2023-01-17T03:34:45.598Z,97945.8
2023-01-17T03:35:45.952Z,97944.09
2023-01-17T03:36:45.613Z,97942.8
2023-01-17T03:37:45.635Z,97947.72
2023-01-17T03:38:45.659Z,97942.17
2023-01-17T03:39:45.695Z,97949.28
2023-01-17T03:40:45.714Z,97946.57
2023-01-17T03:41:45.699Z,97943.91
2023-01-17T03:42:45.719Z,97946.74
2023-01-17T03:43:45.711Z,97945.97
2023-01-17T03:44:45.783Z,97943.28
2023-01-17T03:45:48.572Z,97942.54
2023-01-17T03:46:45.786Z,97936.89
2023-01-17T03:47:45.813Z,97933.77
2023-01-17T03:48:45.846Z,97926.17
2023-01-17T03:49:45.840Z,97930.77
2023-01-17T03:50:49.513Z,97926.2
2023-01-17T03:51:45.869Z,97931.41
2023-01-17T03:52:45.888Z,97932.2
2023-01-17T03:53:46.053Z,97933.28
2023-01-17T03:54:45.933Z,97937.88
2023-01-17T03:55:46.469Z,97926.47
2023-01-17T03:56:45.943Z,97934.21
2023-01-17T03:57:45.939Z,97933.2
2023-01-17T03:58:45.954Z,97921.73
2023-01-17T03:59:46.351Z,97929.64
2023-01-17T04:00:46.097Z,97920.02
2023-01-17T04:01:46.204Z,97917.41
2023-01-17T04:02:46.076Z,97921.47
2023-01-17T04:03:46.039Z,97911.27
2023-01-17T04:04:46.065Z,97921.23
2023-01-17T04:05:46.103Z,97919.29
2023-01-17T04:06:46.082Z,97917.16
2023-01-17T04:07:46.100Z,97917.56
2023-01-17T04:08:46.153Z,97914.21
2023-01-17T04:09:46.161Z,97912.57
2023-01-17T04:10:46.169Z,97909.11
2023-01-17T04:11:46.338Z,97908.69
2023-01-17T04:12:46.210Z,97907.02
2023-01-17T04:13:46.204Z,97906.55
2023-01-17T04:14:46.284Z,97900.3
2023-01-17T04:15:47.127Z,97898
2023-01-17T04:16:46.382Z,97895.69
2023-01-17T04:17:46.287Z,97892.67
2023-01-17T04:18:46.285Z,97893.27
2023-01-17T04:19:46.439Z,97897.07
2023-01-17T04:20:46.745Z,97894.05
2023-01-17T04:21:46.408Z,97896.72
2023-01-17T04:22:46.345Z,97902.59
2023-01-17T04:23:46.361Z,97897.31
2023-01-17T04:24:46.387Z,97900.28
2023-01-17T04:25:46.386Z,97900.74
2023-01-17T04:26:47.343Z,97896.57
2023-01-17T04:27:46.423Z,97892.75
2023-01-17T04:28:46.458Z,97896.59
2023-01-17T04:29:46.906Z,97895.86
2023-01-17T04:30:46.665Z,97891.52
2023-01-17T04:31:46.543Z,97896.31
2023-01-17T04:32:46.694Z,97889.53
2023-01-17T04:33:46.540Z,97888.16
2023-01-17T04:34:46.567Z,97894.2
2023-01-17T04:35:46.569Z,97890.83
2023-01-17T04:36:46.584Z,97897.91
2023-01-17T04:37:46.591Z,97887.84
2023-01-17T04:38:46.663Z,97889.18
2023-01-17T04:39:46.674Z,97888.42
2023-01-17T04:40:46.682Z,97897.27
2023-01-17T04:41:46.676Z,97887.36
2023-01-17T04:42:47.459Z,97883.23
2023-01-17T04:43:46.711Z,97881.05
2023-01-17T04:44:46.764Z,97887.2
2023-01-17T04:45:46.797Z,97884.66
2023-01-17T04:46:46.749Z,97882.9
2023-01-17T04:47:46.774Z,97890
2023-01-17T04:48:46.763Z,97885.47
2023-01-17T04:49:46.800Z,97888.05
2023-01-17T04:50:46.820Z,97880.22
2023-01-17T04:51:46.828Z,97882.31
2023-01-17T04:52:46.846Z,97884.37
2023-01-17T04:53:46.884Z,97886.16
2023-01-17T04:54:47.396Z,97883.22
2023-01-17T04:55:46.874Z,97884.5
2023-01-17T04:56:46.917Z,97885
2023-01-17T04:57:47.542Z,97883.11
2023-01-17T04:58:46.972Z,97880.31
2023-01-17T04:59:47.920Z,97876.05
2023-01-17T05:00:47.495Z,97864.86
2023-01-17T05:01:48.001Z,97874.04
2023-01-17T05:02:47.510Z,97874.81
2023-01-17T05:03:47.853Z,97872.17
2023-01-17T05:04:47.788Z,97870.77
2023-01-17T05:05:48.026Z,97870.61
2023-01-17T05:06:47.509Z,97868.5
2023-01-17T05:07:56.885Z,97865.55
2023-01-17T05:08:48.093Z,97865.02
2023-01-17T05:09:48.092Z,97859.74
2023-01-17T05:10:48.158Z,97861.73
2023-01-17T05:11:48.202Z,97850.69
2023-01-17T05:12:55.195Z,97860.56
2023-01-17T05:13:51.409Z,97857.27
2023-01-17T05:14:51.435Z,97862.4
2023-01-17T05:15:51.661Z,97852.17
2023-01-17T05:16:57.994Z,97847.73
2023-01-17T05:17:54.710Z,97848.88
2023-01-17T05:18:54.392Z,97848.28
2023-01-17T05:19:54.240Z,97844.03
2023-01-17T05:20:54.292Z,97838.56
2023-01-17T05:21:54.337Z,97841.55
2023-01-17T05:22:55.264Z,97843.22
2023-01-17T05:23:54.288Z,97837.34
2023-01-17T05:24:54.316Z,97833.95
2023-01-17T05:25:54.374Z,97834.09
2023-01-17T05:26:54.382Z,97826.56
2023-01-17T05:27:54.584Z,97825.58
2023-01-17T05:28:54.396Z,97827.8
2023-01-17T05:29:54.611Z,97822.28
2023-01-17T05:30:54.569Z,97823.78
2023-01-17T05:31:54.492Z,97818.31
2023-01-17T05:32:55.575Z,97815.81
2023-01-17T05:33:54.492Z,97812
2023-01-17T05:34:54.495Z,97817.41
2023-01-17T05:35:54.531Z,97815.62
2023-01-17T05:36:54.779Z,97806.44
2023-01-17T05:37:54.760Z,97809.91
2023-01-17T05:38:54.568Z,97799.11
2023-01-17T05:39:54.585Z,97802.19
2023-01-17T05:40:54.621Z,97802.97
2023-01-17T05:41:54.600Z,97805.08
2023-01-17T05:42:55.768Z,97802.55
2023-01-17T05:43:54.629Z,97801.55
2023-01-17T05:44:54.640Z,97799.71
2023-01-17T05:45:54.885Z,97801.09
2023-01-17T05:46:55.323Z,97800.07
2023-01-17T05:47:55.881Z,97803.05
2023-01-17T05:48:54.712Z,97798.91
2023-01-17T05:49:54.756Z,97795.44
2023-01-17T05:50:54.793Z,97794.17
2023-01-17T05:51:55.044Z,97797.19
2023-01-17T05:52:58.798Z,97792.03
2023-01-17T05:53:55.025Z,97792.66
2023-01-17T05:54:55.047Z,97792.69
2023-01-17T05:55:55.683Z,97790.05
2023-01-17T05:56:55.724Z,97785
2023-01-17T05:57:55.738Z,97790.5
2023-01-17T05:58:55.704Z,97793.2
2023-01-17T05:59:55.670Z,97787.19
2023-01-17T06:00:55.803Z,97788
2023-01-17T06:01:55.730Z,97787.21
2023-01-17T06:02:56.417Z,97793.4
2023-01-17T06:03:55.836Z,97787.37
2023-01-17T06:04:55.751Z,97797.95
2023-01-17T06:05:55.752Z,97785.55
2023-01-17T06:06:55.746Z,97791.72
2023-01-17T06:07:55.851Z,97793.87
2023-01-17T06:08:55.838Z,97785.97
2023-01-17T06:09:55.806Z,97791
2023-01-17T06:10:58.107Z,97794.55
2023-01-17T06:11:55.824Z,97789.56
2023-01-17T06:13:03.094Z,97790.03
2023-01-17T06:13:59.425Z,97794.14
2023-01-17T06:14:59.314Z,97790.42
2023-01-17T06:16:01.225Z,97787.11
2023-01-17T06:16:59.344Z,97787.69
2023-01-17T06:18:03.310Z,97796.58
2023-01-17T06:18:59.594Z,97799.38
2023-01-17T06:19:59.538Z,97795.42
2023-01-17T06:20:59.627Z,97792.05
2023-01-17T06:21:59.791Z,97791.36
2023-01-17T06:23:00.266Z,97786.08
2023-01-17T06:23:59.574Z,97784.66
2023-01-17T06:24:59.626Z,97781.95
2023-01-17T06:26:02.051Z,97780.88
2023-01-17T06:27:00.228Z,97782.88
2023-01-17T06:28:01.305Z,97780.55
2023-01-17T06:29:00.940Z,97778.38
2023-01-17T06:29:59.837Z,97776.83
2023-01-17T06:31:04.803Z,97775.89
2023-01-17T06:32:01.796Z,97780.95
2023-01-17T06:33:01.145Z,97788.19
2023-01-17T06:34:04.253Z,97787.09
2023-01-17T06:35:01.047Z,97790.73
2023-01-17T06:36:01.391Z,97788.08
2023-01-17T06:37:01.132Z,97781.06
2023-01-17T06:38:01.132Z,97786.52
2023-01-17T06:39:01.105Z,97787.95
2023-01-17T06:40:01.159Z,97792.7
2023-01-17T06:41:03.888Z,97790.33
2023-01-17T06:42:01.259Z,97797.17
2023-01-17T06:43:04.956Z,97795.52
2023-01-17T06:44:01.174Z,97795.8
2023-01-17T06:45:01.185Z,97792.66
2023-01-17T06:46:01.276Z,97793.25
2023-01-17T06:47:01.621Z,97797.27
2023-01-17T06:48:02.001Z,97791.05
2023-01-17T06:49:01.478Z,97789.41
2023-01-17T06:50:01.265Z,97793.5
2023-01-17T06:51:01.260Z,97782.05
2023-01-17T06:52:01.302Z,97792.88
2023-01-17T06:53:02.634Z,97781.83
2023-01-17T06:54:01.316Z,97781.67
2023-01-17T06:55:01.557Z,97772.27
2023-01-17T06:56:01.498Z,97768.54
2023-01-17T06:57:01.634Z,97774.36
2023-01-17T06:58:01.807Z,97770.09
2023-01-17T06:59:01.653Z,97776.39
2023-01-17T07:00:01.624Z,97772.84
2023-01-17T07:01:08.580Z,97772.8
2023-01-17T07:02:04.941Z,97772.58
2023-01-17T07:03:04.840Z,97773.11
2023-01-17T07:04:04.909Z,97774.75
2023-01-17T07:05:05.449Z,97769.55
2023-01-17T07:06:05.405Z,97763.98
2023-01-17T07:07:06.137Z,97772.23
2023-01-17T07:08:04.897Z,97773.56
2023-01-17T07:09:04.937Z,97773.36
2023-01-17T07:10:05.340Z,97774.11
2023-01-17T07:11:06.559Z,97776.31
2023-01-17T07:12:05.163Z,97772.3
2023-01-17T07:13:04.962Z,97757.83
2023-01-17T07:14:04.982Z,97773.45
2023-01-17T07:15:05.665Z,97772.08
2023-01-17T07:16:05.927Z,97759.39
2023-01-17T07:17:05.167Z,97773.03
2023-01-17T07:18:05.484Z,97773
2023-01-17T07:19:05.257Z,97773.8
2023-01-17T07:20:06.030Z,97773.98
2023-01-17T07:21:05.379Z,97768.22
2023-01-17T07:22:05.077Z,97772.48
2023-01-17T07:23:05.290Z,97765.56
2023-01-17T07:24:05.613Z,97764.33
2023-01-17T07:25:05.571Z,97766.68
2023-01-17T07:26:05.289Z,97769.48
2023-01-17T07:27:07.068Z,97768.71
2023-01-17T07:28:05.198Z,97769.02
2023-01-17T07:29:05.394Z,97768.84
2023-01-17T07:30:06.744Z,97769.43
2023-01-17T07:31:06.529Z,97768
2023-01-17T07:32:05.251Z,97758.59
2023-01-17T07:33:05.301Z,97765.69
2023-01-17T07:34:05.279Z,97758.03
2023-01-17T07:35:05.794Z,97759.96
2023-01-17T07:36:06.327Z,97769.06
2023-01-17T07:37:05.327Z,97750.09
2023-01-17T07:38:05.382Z,97757.09
2023-01-17T07:39:06.390Z,97765.25
2023-01-17T07:40:05.858Z,97756.16
2023-01-17T07:41:05.504Z,97758.52
2023-01-17T07:42:05.358Z,97754.85
2023-01-17T07:43:06.158Z,97757.92
2023-01-17T07:44:05.367Z,97757.55
2023-01-17T07:45:06.132Z,97761.66
2023-01-17T07:46:05.999Z,97753.04
2023-01-17T07:47:05.497Z,97753.44
2023-01-17T07:48:05.680Z,97752.02
2023-01-17T07:49:05.719Z,97752.22
2023-01-17T07:50:05.785Z,97744.7
2023-01-17T07:51:05.682Z,97743.9
2023-01-17T07:52:08.859Z,97747.33
2023-01-17T07:53:05.762Z,97746.13
2023-01-17T07:54:05.550Z,97740.64
2023-01-17T07:55:06.031Z,97748.95
2023-01-17T07:56:06.746Z,97735.01
2023-01-17T07:57:05.554Z,97733.88
2023-01-17T07:58:05.604Z,97738.42
2023-01-17T07:59:06.047Z,97734.34
2023-01-17T08:00:06.212Z,97734.27
2023-01-17T08:01:07.435Z,97735.11
2023-01-17T08:02:05.873Z,97730.3
2023-01-17T08:03:05.626Z,97732.11
2023-01-17T08:04:05.729Z,97720.58
2023-01-17T08:05:05.891Z,97724.98
2023-01-17T08:06:06.707Z,97713.52
2023-01-17T08:07:05.691Z,97713.23
2023-01-17T08:08:05.671Z,97713.05
2023-01-17T08:09:05.983Z,97711.67
2023-01-17T08:10:06.201Z,97714.81
2023-01-17T08:11:05.693Z,97717.03
2023-01-17T08:12:05.995Z,97719.59
2023-01-17T08:13:05.795Z,97709.53
2023-01-17T08:14:05.797Z,97716.25
2023-01-17T08:15:06.362Z,97710.08
2023-01-17T08:16:06.271Z,97712.02
2023-01-17T08:17:13.640Z,97713
2023-01-17T08:18:09.870Z,97712.48
2023-01-17T08:19:10.016Z,97712.12
2023-01-17T08:20:10.278Z,97712.17
2023-01-17T08:21:14.433Z,97710.67
2023-01-17T08:22:10.829Z,97706.23
2023-01-17T08:23:11.210Z,97708.06
2023-01-17T08:24:11.982Z,97703.82
2023-01-17T08:25:11.245Z,97704.22
2023-01-17T08:26:10.700Z,97697.95
2023-01-17T08:27:10.715Z,97702.86
2023-01-17T08:28:10.738Z,97707.27
2023-01-17T08:29:10.728Z,97701.52
2023-01-17T08:30:11.367Z,97710.72
2023-01-17T08:31:10.892Z,97715.27
2023-01-17T08:32:10.779Z,97699.56
2023-01-17T08:33:10.796Z,97705.35
2023-01-17T08:34:10.809Z,97702.98
2023-01-17T08:35:10.850Z,97696.61
2023-01-17T08:36:10.881Z,97700.09
2023-01-17T08:37:10.814Z,97700.68
2023-01-17T08:38:10.848Z,97688.74
2023-01-17T08:39:10.862Z,97699.23
2023-01-17T08:40:11.462Z,97694.45
2023-01-17T08:41:11.121Z,97699.2
2023-01-17T08:42:10.918Z,97694.86
2023-01-17T08:43:10.963Z,97695.62
2023-01-17T08:44:10.921Z,97683.59
2023-01-17T08:45:12.081Z,97689.66
2023-01-17T08:46:11.550Z,97688.27
2023-01-17T08:47:11.544Z,97686.29
2023-01-17T08:48:11.472Z,97689.81
2023-01-17T08:49:11.758Z,97687.62
2023-01-17T08:50:12.275Z,97691.8
2023-01-17T08:51:13.712Z,97694.22
2023-01-17T08:52:13.302Z,97696.55
2023-01-17T08:53:13.261Z,97689.19
2023-01-17T08:54:13.375Z,97688.53
2023-01-17T08:55:13.352Z,97685.21
2023-01-17T08:56:13.528Z,97685.23
2023-01-17T08:57:13.327Z,97689.05
2023-01-17T08:58:13.367Z,97684.22
2023-01-17T08:59:13.402Z,97688.03
2023-01-17T09:00:13.725Z,97680.05
2023-01-17T09:01:13.526Z,97685.05
2023-01-17T09:02:16.929Z,97681.17
2023-01-17T09:03:14.558Z,97683.11
2023-01-17T09:04:13.926Z,97677.72
2023-01-17T09:05:13.482Z,97667.78
2023-01-17T09:06:14.388Z,97665
2023-01-17T09:07:13.903Z,97671.2
2023-01-17T09:08:13.507Z,97666.75
2023-01-17T09:09:15.643Z,97666.55
2023-01-17T09:10:13.565Z,97660.69
2023-01-17T09:11:14.964Z,97659.75
2023-01-17T09:12:13.519Z,97664.84
2023-01-17T09:13:13.686Z,97660.16
2023-01-17T09:14:13.988Z,97663.05
2023-01-17T09:15:13.592Z,97665.99
2023-01-17T09:16:13.736Z,97662.74
2023-01-17T09:17:14.640Z,97661.3
2023-01-17T09:18:13.616Z,97666.1
2023-01-17T09:19:13.609Z,97666.06
2023-01-17T09:20:13.959Z,97656.61
2023-01-17T09:21:17.336Z,97653.14
2023-01-17T09:22:13.778Z,97657.4
2023-01-17T09:23:13.852Z,97659.78
2023-01-17T09:24:13.650Z,97646.91
2023-01-17T09:25:13.750Z,97644.42
2023-01-17T09:27:14.824Z,97647.92
2023-01-17T09:28:14.830Z,97644.73
2023-01-17T09:29:14.964Z,97639.62
2023-01-17T09:30:15.426Z,97639.36
2023-01-17T09:31:17.393Z,97637.25
2023-01-17T09:32:14.864Z,97638.26
2023-01-17T09:33:15.513Z,97642.42
2023-01-17T09:34:14.893Z,97640.02
2023-01-17T09:35:15.086Z,97638.42
2023-01-17T09:36:15.436Z,97638.61
2023-01-17T09:37:14.916Z,97638.21
2023-01-17T09:38:14.949Z,97644.33
2023-01-17T09:39:15.143Z,97644.22
2023-01-17T09:40:18.138Z,97634.44
2023-01-17T09:45:29.819Z,97639.31
2023-01-17T09:46:29.288Z,97633.59
2023-01-17T09:49:36.610Z,97629.23
2023-01-17T09:50:41.827Z,97638.28
2023-01-17T09:51:33.141Z,97630.28
2023-01-17T09:52:33.186Z,97631.72
2023-01-17T09:53:34.919Z,97641.97
2023-01-17T09:54:38.918Z,97635.2
2023-01-17T09:55:39.919Z,97631.5
2023-01-17T09:56:40.057Z,97627.38
2023-01-17T09:57:40.832Z,97626.39
2023-01-17T09:58:44.671Z,97631.03
2023-01-17T10:00:02.377Z,97625.58
2023-01-17T10:13:28.859Z,97590.61
2023-01-17T10:15:41.376Z,97587.27
2023-01-17T10:20:52.652Z,97585.67
2023-01-17T10:26:57.534Z,97574.02
2023-01-17T10:27:58.155Z,97580.22
2023-01-17T10:29:00.620Z,97570.41
2023-01-17T10:29:57.168Z,97571.28
2023-01-17T10:32:00.813Z,97562.38
2023-01-17T10:33:01.848Z,97567.44
2023-01-17T10:35:11.179Z,97563.09
2023-01-17T10:36:12.970Z,97563.51
2023-01-17T10:38:14.419Z,97556.11
2023-01-17T10:39:19.053Z,97556.8
2023-01-17T10:40:24.668Z,97560.05
2023-01-17T10:41:28.891Z,97553.39
2023-01-17T10:42:26.599Z,97548.15
2023-01-17T10:45:34.076Z,97552.45
2023-01-17T10:47:34.114Z,97548.16
2023-01-17T10:49:32.600Z,97551.2
2023-01-17T10:50:40.306Z,97549.86
2023-01-17T10:52:41.417Z,97553.23
2023-01-17T10:56:42.847Z,97542.92
2023-01-17T10:57:44.134Z,97545.78
2023-01-17T10:58:42.959Z,97542.83
2023-01-17T10:59:42.877Z,97539.03
2023-01-17T11:01:43.917Z,97531.84
2023-01-17T11:02:47.494Z,97526.58
2023-01-17T11:03:48.133Z,97526.61
2023-01-17T11:04:47.177Z,97523.23
2023-01-17T11:05:44.395Z,97529.52
2023-01-17T11:06:57.607Z,97525.52
2023-01-17T11:07:56.620Z,97528.38
2023-01-17T11:08:57.996Z,97527.09
2023-01-17T11:09:50.941Z,97521.22
2023-01-17T11:10:50.937Z,97519.73
2023-01-17T11:11:50.755Z,97508.17
2023-01-17T11:12:49.723Z,97512.41
2023-01-17T11:13:50.692Z,97506.83
2023-01-17T11:14:56.608Z,97512.78
2023-01-17T11:15:55.343Z,97511.11
2023-01-17T11:17:03.798Z,97511.43
2023-01-17T11:18:06.085Z,97502.12
2023-01-17T11:19:06.469Z,97503.7
2023-01-17T11:20:08.838Z,97505.47
2023-01-17T11:22:05.046Z,97512.28
2023-01-17T11:26:12.469Z,97502.86
2023-01-17T11:30:23.054Z,97508.97
2023-01-17T11:31:24.607Z,97513.42
2023-01-17T11:32:32.900Z,97509.06
2023-01-17T11:34:26.568Z,97505.52
2023-01-17T11:35:27.608Z,97500
2023-01-17T11:36:29.032Z,97505.77
2023-01-17T11:37:25.823Z,97506.95
2023-01-17T11:38:26.085Z,97507.17
2023-01-17T11:39:25.948Z,97503.8
2023-01-17T11:41:26.592Z,97505.73
2023-01-17T11:43:27.868Z,97503.52
2023-01-17T11:44:32.250Z,97506.69
2023-01-17T11:45:29.980Z,97503.84
2023-01-17T11:46:28.834Z,97505.05
2023-01-17T11:47:28.621Z,97498.46
2023-01-17T11:48:33.385Z,97498.72
2023-01-17T11:49:29.608Z,97497.07
2023-01-17T11:50:29.664Z,97494.75
2023-01-17T11:52:33.439Z,97494.56
2023-01-17T11:53:33.312Z,97496.48
2023-01-17T11:54:33.031Z,97497.01
2023-01-17T11:55:31.969Z,97497.03
2023-01-17T11:56:33.302Z,97495.95
2023-01-17T11:57:34.840Z,97493.27
2023-01-17T11:58:36.531Z,97491.25
2023-01-17T11:59:37.002Z,97490.91
2023-01-17T12:10:04.422Z,97477.55
2023-01-17T12:14:14.614Z,97476.26
2023-01-17T12:29:43.613Z,97471.5
2023-01-17T12:34:52.898Z,97454.09
2023-01-17T12:36:56.363Z,97448.35
2023-01-17T12:38:05.514Z,97448.14
2023-01-17T12:39:00.898Z,97445.34
2023-01-17T12:40:00.489Z,97449.82
2023-01-17T12:41:00.799Z,97450.06
2023-01-17T12:42:01.617Z,97443.91
2023-01-17T12:44:00.606Z,97438.56
2023-01-17T12:45:05.611Z,97440.22
2023-01-17T12:46:05.302Z,97436.42
2023-01-17T12:47:03.414Z,97435.64
2023-01-17T12:48:05.543Z,97439.86
2023-01-17T12:50:08.030Z,97441.47
2023-01-17T12:51:08.043Z,97440.19
2023-01-17T12:52:12.774Z,97438.68
2023-01-17T12:54:25.123Z,97442.39
2023-01-17T12:55:18.076Z,97445.84
2023-01-17T12:58:21.133Z,97441.95
2023-01-17T13:00:20.162Z,97445.32
2023-01-17T13:03:29.933Z,97436.27
2023-01-17T13:05:37.721Z,97434.58
2023-01-17T13:08:45.555Z,97429.71
2023-01-17T13:09:48.385Z,97431.76
2023-01-17T13:10:51.004Z,97431.88
2023-01-17T13:11:55.075Z,97430.28
2023-01-17T13:12:52.519Z,97431.81
2023-01-17T13:13:51.294Z,97432.05
2023-01-17T13:14:51.325Z,97432.67
2023-01-17T13:17:00.721Z,97432.66
2023-01-17T13:18:04.540Z,97427.95
2023-01-17T13:19:06.938Z,97427.14
2023-01-17T13:20:14.053Z,97425.78
2023-01-17T13:21:17.107Z,97426.6
2023-01-17T13:22:10.636Z,97429.06
2023-01-17T13:24:18.699Z,97428.98
2023-01-17T13:25:28.224Z,97432.53
2023-01-17T13:31:44.774Z,97422.08
2023-01-17T13:32:52.429Z,97425.08
2023-01-17T13:44:04.939Z,97415.3
2023-01-17T13:46:08.108Z,97410.78
2023-01-17T13:51:19.086Z,97414.55
2023-01-17T13:52:31.011Z,97415.66
2023-01-17T13:54:34.147Z,97413.32
2023-01-17T13:56:27.390Z,97422.48
2023-01-17T13:59:31.775Z,97416.09
2023-01-17T14:01:49.483Z,97405.84
2023-01-17T14:02:42.440Z,97413.11
2023-01-17T14:05:46.804Z,97407.45
2023-01-17T14:06:44.869Z,97410.82
2023-01-17T14:08:44.800Z,97410.64
2023-01-17T14:09:50.881Z,97405.69
2023-01-17T14:10:49.511Z,97410.86
2023-01-17T14:12:48.615Z,97400.47
2023-01-17T14:13:47.721Z,97395.22
2023-01-17T14:14:49.246Z,97399.02
2023-01-17T14:15:49.554Z,97398.91
2023-01-17T14:16:47.782Z,97387.68
2023-01-17T14:17:50.188Z,97391.55
2023-01-17T14:18:48.333Z,97388.59
2023-01-17T14:19:52.066Z,97392.21
2023-01-17T14:20:50.507Z,97395.89
2023-01-17T14:21:48.847Z,97394.39
2023-01-17T14:22:52.077Z,97381.56
2023-01-17T14:23:51.617Z,97386
2023-01-17T14:25:00.100Z,97386.19
2023-01-17T14:25:52.773Z,97381.3
2023-01-17T14:26:55.145Z,97380.21
2023-01-17T14:27:54.227Z,97384.25
2023-01-17T14:28:52.298Z,97382.88
2023-01-17T14:29:54.760Z,97378.12
2023-01-17T14:30:52.809Z,97378.23
2023-01-17T14:31:59.505Z,97379.41
2023-01-17T14:35:04.221Z,97391.45